sensor_id;sensor_type;location;lat;lon;timestamp;temperature;humidity
18321;DHT22;54904;54.350;18.664;2023-10-09T00:02:24;11.30;74.70
18321;DHT22;54904;54.350;18.664;2023-10-09T00:04:51;11.30;74.70
18321;DHT22;54904;54.350;18.664;2023-10-09T00:07:18;11.20;74.60
18321;DHT22;54904;54.350;18.664;2023-10-09T00:09:51;11.20;74.80
18321;DHT22;54904;54.350;18.664;2023-10-09T00:12:20;11.20;75.00
18321;DHT22;54904;54.350;18.664;2023-10-09T00:14:49;11.20;75.20
18321;DHT22;54904;54.350;18.664;2023-10-09T00:17:21;11.10;75.00
18321;DHT22;54904;54.350;18.664;2023-10-09T00:19:49;11.10;75.10
18321;DHT22;54904;54.350;18.664;2023-10-09T00:22:20;11.10;75.10
18321;DHT22;54904;54.350;18.664;2023-10-09T00:24:56;11.20;75.20
18321;DHT22;54904;54.350;18.664;2023-10-09T00:27:47;11.10;75.00
18321;DHT22;54904;54.350;18.664;2023-10-09T00:30:15;11.10;75.10
18321;DHT22;54904;54.350;18.664;2023-10-09T00:32:44;11.10;75.10
18321;DHT22;54904;54.350;18.664;2023-10-09T00:35:25;11.10;75.10
18321;DHT22;54904;54.350;18.664;2023-10-09T00:38:12;11.10;75.10
18321;DHT22;54904;54.350;18.664;2023-10-09T00:40:50;11.10;75.10
18321;DHT22;54904;54.350;18.664;2023-10-09T00:43:27;11.10;75.00
18321;DHT22;54904;54.350;18.664;2023-10-09T00:45:58;11.20;75.10
18321;DHT22;54904;54.350;18.664;2023-10-09T00:48:35;11.20;75.10
18321;DHT22;54904;54.350;18.664;2023-10-09T00:51:06;11.10;74.90
18321;DHT22;54904;54.350;18.664;2023-10-09T00:53:43;11.10;75.00
18321;DHT22;54904;54.350;18.664;2023-10-09T00:56:13;11.10;75.00
18321;DHT22;54904;54.350;18.664;2023-10-09T00:58:47;11.10;75.10
18321;DHT22;54904;54.350;18.664;2023-10-09T01:04:33;11.10;75.00
18321;DHT22;54904;54.350;18.664;2023-10-09T01:07:04;11.10;74.90
18321;DHT22;54904;54.350;18.664;2023-10-09T01:09:34;11.10;74.80
18321;DHT22;54904;54.350;18.664;2023-10-09T01:12:05;11.10;75.60
18321;DHT22;54904;54.350;18.664;2023-10-09T01:14:34;11.10;74.90
18321;DHT22;54904;54.350;18.664;2023-10-09T01:17:04;11.10;74.90
18321;DHT22;54904;54.350;18.664;2023-10-09T01:19:36;11.00;74.80
18321;DHT22;54904;54.350;18.664;2023-10-09T01:22:03;11.00;75.60
18321;DHT22;54904;54.350;18.664;2023-10-09T01:24:39;11.00;74.80
18321;DHT22;54904;54.350;18.664;2023-10-09T01:27:07;11.00;74.90
18321;DHT22;54904;54.350;18.664;2023-10-09T01:29:40;11.00;74.80
18321;DHT22;54904;54.350;18.664;2023-10-09T01:32:09;11.00;74.90
18321;DHT22;54904;54.350;18.664;2023-10-09T01:34:42;11.00;74.90
18321;DHT22;54904;54.350;18.664;2023-10-09T01:37:12;11.00;74.90
18321;DHT22;54904;54.350;18.664;2023-10-09T01:39:46;11.00;74.90
18321;DHT22;54904;54.350;18.664;2023-10-09T01:42:14;11.00;74.90
18321;DHT22;54904;54.350;18.664;2023-10-09T01:44:50;11.00;74.90
18321;DHT22;54904;54.350;18.664;2023-10-09T01:47:18;11.00;74.90
18321;DHT22;54904;54.350;18.664;2023-10-09T01:49:47;11.00;74.90
18321;DHT22;54904;54.350;18.664;2023-10-09T01:52:15;11.00;74.90
18321;DHT22;54904;54.350;18.664;2023-10-09T01:54:46;11.00;75.00
18321;DHT22;54904;54.350;18.664;2023-10-09T01:57:15;10.90;74.90
18321;DHT22;54904;54.350;18.664;2023-10-09T01:59:48;10.90;75.00
18321;DHT22;54904;54.350;18.664;2023-10-09T02:02:16;11.00;75.00
18321;DHT22;54904;54.350;18.664;2023-10-09T02:04:53;11.00;75.00
18321;DHT22;54904;54.350;18.664;2023-10-09T02:07:31;11.00;75.00
18321;DHT22;54904;54.350;18.664;2023-10-09T02:10:10;11.10;74.90
18321;DHT22;54904;54.350;18.664;2023-10-09T02:12:47;11.10;74.80
18321;DHT22;54904;54.350;18.664;2023-10-09T02:15:18;11.10;74.80
18321;DHT22;54904;54.350;18.664;2023-10-09T02:18:05;11.10;74.80
18321;DHT22;54904;54.350;18.664;2023-10-09T02:20:42;11.10;74.80
18321;DHT22;54904;54.350;18.664;2023-10-09T02:23:11;11.00;74.70
18321;DHT22;54904;54.350;18.664;2023-10-09T02:25:40;11.00;74.70
18321;DHT22;54904;54.350;18.664;2023-10-09T02:28:09;11.10;74.70
18321;DHT22;54904;54.350;18.664;2023-10-09T02:30:43;11.10;74.60
18321;DHT22;54904;54.350;18.664;2023-10-09T02:33:13;11.10;74.50
18321;DHT22;54904;54.350;18.664;2023-10-09T02:35:44;11.10;74.40
18321;DHT22;54904;54.350;18.664;2023-10-09T02:38:17;11.00;74.30
18321;DHT22;54904;54.350;18.664;2023-10-09T02:40:50;11.00;74.40
18321;DHT22;54904;54.350;18.664;2023-10-09T02:43:44;11.00;74.40
18321;DHT22;54904;54.350;18.664;2023-10-09T02:46:13;11.00;74.40
18321;DHT22;54904;54.350;18.664;2023-10-09T02:48:43;11.00;74.50
18321;DHT22;54904;54.350;18.664;2023-10-09T02:51:17;11.00;74.50
18321;DHT22;54904;54.350;18.664;2023-10-09T02:53:59;11.00;74.50
18321;DHT22;54904;54.350;18.664;2023-10-09T02:56:35;11.00;74.40
18321;DHT22;54904;54.350;18.664;2023-10-09T02:59:08;11.00;74.40
18321;DHT22;54904;54.350;18.664;2023-10-09T03:01:37;11.00;74.40
18321;DHT22;54904;54.350;18.664;2023-10-09T03:04:05;11.00;74.30
18321;DHT22;54904;54.350;18.664;2023-10-09T03:06:33;11.00;74.30
18321;DHT22;54904;54.350;18.664;2023-10-09T03:09:09;11.00;74.30
18321;DHT22;54904;54.350;18.664;2023-10-09T03:11:45;11.00;74.10
18321;DHT22;54904;54.350;18.664;2023-10-09T03:14:14;11.00;74.10
18321;DHT22;54904;54.350;18.664;2023-10-09T03:16:41;11.00;74.00
18321;DHT22;54904;54.350;18.664;2023-10-09T03:19:09;11.00;74.00
18321;DHT22;54904;54.350;18.664;2023-10-09T03:21:39;11.00;73.90
18321;DHT22;54904;54.350;18.664;2023-10-09T03:24:07;11.00;73.80
18321;DHT22;54904;54.350;18.664;2023-10-09T03:26:34;11.00;73.90
18321;DHT22;54904;54.350;18.664;2023-10-09T03:29:03;11.00;73.80
18321;DHT22;54904;54.350;18.664;2023-10-09T03:31:32;11.00;73.80
18321;DHT22;54904;54.350;18.664;2023-10-09T03:34:00;11.00;73.90
18321;DHT22;54904;54.350;18.664;2023-10-09T03:36:28;11.00;73.90
18321;DHT22;54904;54.350;18.664;2023-10-09T03:38:56;10.90;73.90
18321;DHT22;54904;54.350;18.664;2023-10-09T03:41:24;10.90;73.90
18321;DHT22;54904;54.350;18.664;2023-10-09T03:43:52;11.00;74.00
18321;DHT22;54904;54.350;18.664;2023-10-09T03:46:21;11.00;74.00
18321;DHT22;54904;54.350;18.664;2023-10-09T03:48:53;11.00;73.90
18321;DHT22;54904;54.350;18.664;2023-10-09T03:51:22;10.90;73.90
18321;DHT22;54904;54.350;18.664;2023-10-09T03:53:52;10.90;74.00
18321;DHT22;54904;54.350;18.664;2023-10-09T03:56:19;10.90;74.10
18321;DHT22;54904;54.350;18.664;2023-10-09T03:58:48;10.90;74.80
18321;DHT22;54904;54.350;18.664;2023-10-09T04:01:16;10.90;74.20
18321;DHT22;54904;54.350;18.664;2023-10-09T04:03:50;10.80;74.20
18321;DHT22;54904;54.350;18.664;2023-10-09T04:06:21;10.80;74.20
18321;DHT22;54904;54.350;18.664;2023-10-09T04:08:49;10.80;74.30
18321;DHT22;54904;54.350;18.664;2023-10-09T04:11:17;10.80;74.30
18321;DHT22;54904;54.350;18.664;2023-10-09T04:13:49;10.80;75.10
18321;DHT22;54904;54.350;18.664;2023-10-09T04:16:17;10.80;74.40
18321;DHT22;54904;54.350;18.664;2023-10-09T04:19:01;10.80;74.30
18321;DHT22;54904;54.350;18.664;2023-10-09T04:21:36;10.80;74.40
18321;DHT22;54904;54.350;18.664;2023-10-09T04:24:03;10.80;75.10
18321;DHT22;54904;54.350;18.664;2023-10-09T04:26:49;10.80;74.40
18321;DHT22;54904;54.350;18.664;2023-10-09T04:29:22;10.80;74.30
18321;DHT22;54904;54.350;18.664;2023-10-09T04:31:53;10.80;74.40
18321;DHT22;54904;54.350;18.664;2023-10-09T04:34:22;10.80;74.40
18321;DHT22;54904;54.350;18.664;2023-10-09T04:36:55;10.80;74.40
18321;DHT22;54904;54.350;18.664;2023-10-09T04:39:27;10.80;74.40
18321;DHT22;54904;54.350;18.664;2023-10-09T04:42:13;10.80;74.40
18321;DHT22;54904;54.350;18.664;2023-10-09T04:44:52;10.80;74.30
18321;DHT22;54904;54.350;18.664;2023-10-09T04:47:34;10.80;74.30
18321;DHT22;54904;54.350;18.664;2023-10-09T04:50:06;10.80;74.20
18321;DHT22;54904;54.350;18.664;2023-10-09T04:52:36;10.80;74.20
18321;DHT22;54904;54.350;18.664;2023-10-09T04:55:20;10.80;74.20
18321;DHT22;54904;54.350;18.664;2023-10-09T04:57:51;10.90;75.00
18321;DHT22;54904;54.350;18.664;2023-10-09T05:00:35;10.90;74.20
18321;DHT22;54904;54.350;18.664;2023-10-09T05:03:20;10.90;74.20
18321;DHT22;54904;54.350;18.664;2023-10-09T05:05:55;10.90;74.80
18321;DHT22;54904;54.350;18.664;2023-10-09T05:08:27;10.90;74.00
18321;DHT22;54904;54.350;18.664;2023-10-09T05:10:59;10.90;74.10
18321;DHT22;54904;54.350;18.664;2023-10-09T05:13:41;10.90;74.00
18321;DHT22;54904;54.350;18.664;2023-10-09T05:16:15;10.90;74.00
18321;DHT22;54904;54.350;18.664;2023-10-09T05:18:45;10.90;74.00
18321;DHT22;54904;54.350;18.664;2023-10-09T05:21:24;10.90;74.10
18321;DHT22;54904;54.350;18.664;2023-10-09T05:24:03;10.90;74.10
18321;DHT22;54904;54.350;18.664;2023-10-09T05:26:46;10.90;74.00
18321;DHT22;54904;54.350;18.664;2023-10-09T05:29:20;10.90;74.40
18321;DHT22;54904;54.350;18.664;2023-10-09T05:32:01;10.90;74.20
18321;DHT22;54904;54.350;18.664;2023-10-09T05:34:41;10.90;74.20
18321;DHT22;54904;54.350;18.664;2023-10-09T05:37:24;10.90;74.20
18321;DHT22;54904;54.350;18.664;2023-10-09T05:39:52;10.90;74.10
18321;DHT22;54904;54.350;18.664;2023-10-09T05:42:45;10.90;74.10
18321;DHT22;54904;54.350;18.664;2023-10-09T05:45:23;11.00;74.20
18321;DHT22;54904;54.350;18.664;2023-10-09T05:48:07;11.00;74.10
18321;DHT22;54904;54.350;18.664;2023-10-09T05:51:04;11.00;74.90
18321;DHT22;54904;54.350;18.664;2023-10-09T05:53:39;11.00;74.20
18321;DHT22;54904;54.350;18.664;2023-10-09T05:56:32;11.00;74.20
18321;DHT22;54904;54.350;18.664;2023-10-09T05:59:16;11.00;74.20
18321;DHT22;54904;54.350;18.664;2023-10-09T06:02:01;11.00;74.20
18321;DHT22;54904;54.350;18.664;2023-10-09T06:04:45;11.00;74.20
18321;DHT22;54904;54.350;18.664;2023-10-09T06:07:21;11.00;74.20
18321;DHT22;54904;54.350;18.664;2023-10-09T06:10:08;11.00;74.20
18321;DHT22;54904;54.350;18.664;2023-10-09T06:12:45;11.00;74.30
18321;DHT22;54904;54.350;18.664;2023-10-09T06:15:21;11.00;74.30
18321;DHT22;54904;54.350;18.664;2023-10-09T06:18:17;11.10;74.40
18321;DHT22;54904;54.350;18.664;2023-10-09T06:20:52;11.10;74.40
18321;DHT22;54904;54.350;18.664;2023-10-09T06:23:55;11.10;74.30
18321;DHT22;54904;54.350;18.664;2023-10-09T06:26:42;11.10;74.30
18321;DHT22;54904;54.350;18.664;2023-10-09T06:29:18;11.10;74.30
18321;DHT22;54904;54.350;18.664;2023-10-09T06:32:01;11.10;75.00
18321;DHT22;54904;54.350;18.664;2023-10-09T06:35:01;11.20;74.30
18321;DHT22;54904;54.350;18.664;2023-10-09T06:37:42;11.20;74.30
18321;DHT22;54904;54.350;18.664;2023-10-09T06:40:23;11.20;75.00
18321;DHT22;54904;54.350;18.664;2023-10-09T06:43:06;11.20;74.20
18321;DHT22;54904;54.350;18.664;2023-10-09T06:45:35;11.30;74.20
18321;DHT22;54904;54.350;18.664;2023-10-09T06:48:11;11.30;74.20
18321;DHT22;54904;54.350;18.664;2023-10-09T06:50:52;11.40;74.20
18321;DHT22;54904;54.350;18.664;2023-10-09T06:53:30;11.40;74.10
18321;DHT22;54904;54.350;18.664;2023-10-09T06:56:11;11.50;74.10
18321;DHT22;54904;54.350;18.664;2023-10-09T06:58:50;11.50;74.00
18321;DHT22;54904;54.350;18.664;2023-10-09T07:01:20;11.60;74.10
18321;DHT22;54904;54.350;18.664;2023-10-09T07:03:54;11.60;73.90
18321;DHT22;54904;54.350;18.664;2023-10-09T07:06:26;11.70;73.90
18321;DHT22;54904;54.350;18.664;2023-10-09T07:09:07;11.70;73.80
18321;DHT22;54904;54.350;18.664;2023-10-09T07:11:46;11.80;73.80
18321;DHT22;54904;54.350;18.664;2023-10-09T07:14:27;11.80;73.70
18321;DHT22;54904;54.350;18.664;2023-10-09T07:17:13;11.90;73.70
18321;DHT22;54904;54.350;18.664;2023-10-09T07:19:48;11.90;73.60
18321;DHT22;54904;54.350;18.664;2023-10-09T07:22:37;11.90;73.50
18321;DHT22;54904;54.350;18.664;2023-10-09T07:25:20;12.00;73.50
18321;DHT22;54904;54.350;18.664;2023-10-09T07:28:08;12.00;73.30
18321;DHT22;54904;54.350;18.664;2023-10-09T07:30:56;12.10;73.20
18321;DHT22;54904;54.350;18.664;2023-10-09T07:33:26;12.10;73.10
18321;DHT22;54904;54.350;18.664;2023-10-09T07:36:17;12.20;73.10
18321;DHT22;54904;54.350;18.664;2023-10-09T07:38:58;12.20;73.00
18321;DHT22;54904;54.350;18.664;2023-10-09T07:41:33;12.20;72.80
18321;DHT22;54904;54.350;18.664;2023-10-09T07:44:10;12.20;72.80
18321;DHT22;54904;54.350;18.664;2023-10-09T07:47:02;12.30;72.80
18321;DHT22;54904;54.350;18.664;2023-10-09T07:49:48;12.20;72.70
18321;DHT22;54904;54.350;18.664;2023-10-09T07:52:20;12.30;72.80
18321;DHT22;54904;54.350;18.664;2023-10-09T07:54:51;12.30;72.80
18321;DHT22;54904;54.350;18.664;2023-10-09T07:57:27;12.30;72.80
18321;DHT22;54904;54.350;18.664;2023-10-09T08:00:05;12.40;72.90
18321;DHT22;54904;54.350;18.664;2023-10-09T08:03:01;12.40;72.80
18321;DHT22;54904;54.350;18.664;2023-10-09T08:05:35;12.50;72.70
18321;DHT22;54904;54.350;18.664;2023-10-09T08:08:10;12.50;72.70
18321;DHT22;54904;54.350;18.664;2023-10-09T08:10:59;12.50;72.60
18321;DHT22;54904;54.350;18.664;2023-10-09T08:13:44;12.60;72.70
18321;DHT22;54904;54.350;18.664;2023-10-09T08:16:23;12.70;72.80
18321;DHT22;54904;54.350;18.664;2023-10-09T08:18:51;12.70;72.70
18321;DHT22;54904;54.350;18.664;2023-10-09T08:21:19;12.70;72.80
18321;DHT22;54904;54.350;18.664;2023-10-09T08:24:07;12.70;72.70
18321;DHT22;54904;54.350;18.664;2023-10-09T08:26:54;12.80;72.70
18321;DHT22;54904;54.350;18.664;2023-10-09T08:29:44;12.90;72.70
18321;DHT22;54904;54.350;18.664;2023-10-09T08:32:13;12.90;72.50
18321;DHT22;54904;54.350;18.664;2023-10-09T08:35:06;12.90;72.40
18321;DHT22;54904;54.350;18.664;2023-10-09T08:37:45;13.00;72.40
18321;DHT22;54904;54.350;18.664;2023-10-09T08:40:14;13.00;72.50
18321;DHT22;54904;54.350;18.664;2023-10-09T08:42:45;13.10;72.50
18321;DHT22;54904;54.350;18.664;2023-10-09T08:45:22;13.20;72.50
18321;DHT22;54904;54.350;18.664;2023-10-09T08:47:53;13.30;72.40
18321;DHT22;54904;54.350;18.664;2023-10-09T08:50:22;13.30;72.30
18321;DHT22;54904;54.350;18.664;2023-10-09T08:52:54;13.40;72.30
18321;DHT22;54904;54.350;18.664;2023-10-09T08:55:22;13.40;72.20
18321;DHT22;54904;54.350;18.664;2023-10-09T08:57:49;13.50;72.20
18321;DHT22;54904;54.350;18.664;2023-10-09T09:00:19;13.50;72.10
18321;DHT22;54904;54.350;18.664;2023-10-09T09:02:50;13.50;72.10
18321;DHT22;54904;54.350;18.664;2023-10-09T09:05:19;13.50;72.10
18321;DHT22;54904;54.350;18.664;2023-10-09T09:07:48;13.50;72.00
18321;DHT22;54904;54.350;18.664;2023-10-09T09:10:15;13.50;72.00
18321;DHT22;54904;54.350;18.664;2023-10-09T09:12:47;13.50;71.90
18321;DHT22;54904;54.350;18.664;2023-10-09T09:15:19;13.50;71.80
18321;DHT22;54904;54.350;18.664;2023-10-09T09:17:47;13.50;71.60
18321;DHT22;54904;54.350;18.664;2023-10-09T09:20:23;13.50;71.40
18321;DHT22;54904;54.350;18.664;2023-10-09T09:22:56;13.60;71.40
18321;DHT22;54904;54.350;18.664;2023-10-09T09:25:23;13.70;71.50
18321;DHT22;54904;54.350;18.664;2023-10-09T09:27:51;13.70;71.30
18321;DHT22;54904;54.350;18.664;2023-10-09T09:30:24;13.70;71.20
18321;DHT22;54904;54.350;18.664;2023-10-09T09:32:57;13.80;71.30
18321;DHT22;54904;54.350;18.664;2023-10-09T09:35:55;13.80;71.20
18321;DHT22;54904;54.350;18.664;2023-10-09T09:38:26;13.80;71.30
18321;DHT22;54904;54.350;18.664;2023-10-09T09:40:56;13.80;71.30
18321;DHT22;54904;54.350;18.664;2023-10-09T09:43:29;13.80;71.20
18321;DHT22;54904;54.350;18.664;2023-10-09T09:46:01;13.90;71.30
18321;DHT22;54904;54.350;18.664;2023-10-09T09:48:37;13.90;71.30
18321;DHT22;54904;54.350;18.664;2023-10-09T09:51:12;14.00;71.30
18321;DHT22;54904;54.350;18.664;2023-10-09T09:53:41;14.00;71.20
18321;DHT22;54904;54.350;18.664;2023-10-09T09:56:14;14.10;71.10
18321;DHT22;54904;54.350;18.664;2023-10-09T09:58:46;14.20;70.80
18321;DHT22;54904;54.350;18.664;2023-10-09T10:01:20;14.30;70.60
18321;DHT22;54904;54.350;18.664;2023-10-09T10:03:54;14.50;70.40
18321;DHT22;54904;54.350;18.664;2023-10-09T10:06:25;14.60;70.00
18321;DHT22;54904;54.350;18.664;2023-10-09T10:08:56;15.00;70.00
18321;DHT22;54904;54.350;18.664;2023-10-09T10:11:43;15.20;69.10
18321;DHT22;54904;54.350;18.664;2023-10-09T10:14:11;15.30;68.90
18321;DHT22;54904;54.350;18.664;2023-10-09T10:17:03;15.50;68.50
18321;DHT22;54904;54.350;18.664;2023-10-09T10:20:05;16.40;67.70
18321;DHT22;54904;54.350;18.664;2023-10-09T10:22:50;16.70;67.10
18321;DHT22;54904;54.350;18.664;2023-10-09T10:25:34;17.30;65.80
18321;DHT22;54904;54.350;18.664;2023-10-09T10:28:19;17.90;64.80
18321;DHT22;54904;54.350;18.664;2023-10-09T10:31:01;17.90;63.80
18321;DHT22;54904;54.350;18.664;2023-10-09T10:34:03;17.70;63.60
18321;DHT22;54904;54.350;18.664;2023-10-09T10:36:32;17.40;63.70
18321;DHT22;54904;54.350;18.664;2023-10-09T10:39:01;17.10;63.70
18321;DHT22;54904;54.350;18.664;2023-10-09T10:41:34;17.00;63.70
18321;DHT22;54904;54.350;18.664;2023-10-09T10:44:24;16.80;63.50
18321;DHT22;54904;54.350;18.664;2023-10-09T10:47:05;16.60;63.70
18321;DHT22;54904;54.350;18.664;2023-10-09T10:49:43;16.30;63.70
18321;DHT22;54904;54.350;18.664;2023-10-09T10:52:20;16.20;63.70
18321;DHT22;54904;54.350;18.664;2023-10-09T10:54:47;16.10;63.80
18321;DHT22;54904;54.350;18.664;2023-10-09T10:57:35;16.00;63.90
18321;DHT22;54904;54.350;18.664;2023-10-09T11:00:34;16.00;63.80
18321;DHT22;54904;54.350;18.664;2023-10-09T11:03:19;16.00;63.60
18321;DHT22;54904;54.350;18.664;2023-10-09T11:05:49;15.90;63.40
18321;DHT22;54904;54.350;18.664;2023-10-09T11:08:24;15.80;63.20
18321;DHT22;54904;54.350;18.664;2023-10-09T11:11:13;15.70;63.30
18321;DHT22;54904;54.350;18.664;2023-10-09T11:13:45;15.60;62.50
18321;DHT22;54904;54.350;18.664;2023-10-09T11:16:25;15.50;62.10
18321;DHT22;54904;54.350;18.664;2023-10-09T11:19:14;15.40;62.40
18321;DHT22;54904;54.350;18.664;2023-10-09T11:21:55;15.30;62.60
18321;DHT22;54904;54.350;18.664;2023-10-09T11:24:47;15.20;63.40
18321;DHT22;54904;54.350;18.664;2023-10-09T11:27:27;15.20;62.70
18321;DHT22;54904;54.350;18.664;2023-10-09T11:29:58;15.10;62.60
18321;DHT22;54904;54.350;18.664;2023-10-09T11:32:47;15.10;62.80
18321;DHT22;54904;54.350;18.664;2023-10-09T11:35:16;15.10;62.90
18321;DHT22;54904;54.350;18.664;2023-10-09T11:37:55;15.20;63.00
18321;DHT22;54904;54.350;18.664;2023-10-09T11:40:32;15.10;63.00
18321;DHT22;54904;54.350;18.664;2023-10-09T11:43:08;15.10;63.20
18321;DHT22;54904;54.350;18.664;2023-10-09T11:45:39;15.10;63.20
18321;DHT22;54904;54.350;18.664;2023-10-09T11:48:21;15.10;63.30
18321;DHT22;54904;54.350;18.664;2023-10-09T11:50:52;15.10;63.10
18321;DHT22;54904;54.350;18.664;2023-10-09T11:53:22;15.10;63.10
18321;DHT22;54904;54.350;18.664;2023-10-09T11:56:02;15.00;62.60
18321;DHT22;54904;54.350;18.664;2023-10-09T11:58:29;15.10;63.10
18321;DHT22;54904;54.350;18.664;2023-10-09T12:00:58;15.00;62.30
18321;DHT22;54904;54.350;18.664;2023-10-09T12:03:31;15.00;62.40
18321;DHT22;54904;54.350;18.664;2023-10-09T12:06:00;15.00;62.40
18321;DHT22;54904;54.350;18.664;2023-10-09T12:08:30;15.00;62.50
18321;DHT22;54904;54.350;18.664;2023-10-09T12:10:58;15.00;62.20
18321;DHT22;54904;54.350;18.664;2023-10-09T12:13:28;15.00;62.00
18321;DHT22;54904;54.350;18.664;2023-10-09T12:15:56;15.00;62.00
18321;DHT22;54904;54.350;18.664;2023-10-09T12:18:24;15.00;61.60
18321;DHT22;54904;54.350;18.664;2023-10-09T12:20:52;14.90;61.30
18321;DHT22;54904;54.350;18.664;2023-10-09T12:23:28;14.90;61.10
18321;DHT22;54904;54.350;18.664;2023-10-09T12:25:55;14.90;61.00
18321;DHT22;54904;54.350;18.664;2023-10-09T12:28:23;15.00;61.10
18321;DHT22;54904;54.350;18.664;2023-10-09T12:30:50;15.20;60.90
18321;DHT22;54904;54.350;18.664;2023-10-09T12:33:18;15.30;60.60
18321;DHT22;54904;54.350;18.664;2023-10-09T12:35:53;15.60;60.50
18321;DHT22;54904;54.350;18.664;2023-10-09T12:38:26;16.00;60.00
18321;DHT22;54904;54.350;18.664;2023-10-09T12:41:02;16.30;59.60
18321;DHT22;54904;54.350;18.664;2023-10-09T12:43:34;16.70;59.40
18321;DHT22;54904;54.350;18.664;2023-10-09T12:46:06;16.90;59.10
18321;DHT22;54904;54.350;18.664;2023-10-09T12:48:33;16.80;58.50
18321;DHT22;54904;54.350;18.664;2023-10-09T12:51:03;17.20;58.50
18321;DHT22;54904;54.350;18.664;2023-10-09T12:53:32;17.30;58.30
18321;DHT22;54904;54.350;18.664;2023-10-09T12:55:59;17.40;58.20
18321;DHT22;54904;54.350;18.664;2023-10-09T12:58:27;17.70;58.10
18321;DHT22;54904;54.350;18.664;2023-10-09T13:00:54;18.20;57.90
18321;DHT22;54904;54.350;18.664;2023-10-09T13:03:21;18.60;57.40
18321;DHT22;54904;54.350;18.664;2023-10-09T13:05:54;18.60;56.60
18321;DHT22;54904;54.350;18.664;2023-10-09T13:08:26;18.30;56.70
18321;DHT22;54904;54.350;18.664;2023-10-09T13:11:01;17.90;56.90
18321;DHT22;54904;54.350;18.664;2023-10-09T13:13:30;17.70;57.20
18321;DHT22;54904;54.350;18.664;2023-10-09T13:16:12;17.60;57.40
18321;DHT22;54904;54.350;18.664;2023-10-09T13:18:46;17.40;57.50
18321;DHT22;54904;54.350;18.664;2023-10-09T13:21:17;17.30;57.70
18321;DHT22;54904;54.350;18.664;2023-10-09T13:23:47;17.10;57.80
18321;DHT22;54904;54.350;18.664;2023-10-09T13:26:16;16.90;57.80
18321;DHT22;54904;54.350;18.664;2023-10-09T13:28:51;16.80;57.60
18321;DHT22;54904;54.350;18.664;2023-10-09T13:31:19;16.70;57.10
18321;DHT22;54904;54.350;18.664;2023-10-09T13:33:47;16.60;56.90
18321;DHT22;54904;54.350;18.664;2023-10-09T13:36:15;16.50;56.90
18321;DHT22;54904;54.350;18.664;2023-10-09T13:38:54;16.40;56.90
18321;DHT22;54904;54.350;18.664;2023-10-09T13:41:22;16.30;57.10
18321;DHT22;54904;54.350;18.664;2023-10-09T13:43:54;16.20;57.10
18321;DHT22;54904;54.350;18.664;2023-10-09T13:46:22;16.20;57.30
18321;DHT22;54904;54.350;18.664;2023-10-09T13:48:50;16.10;57.30
18321;DHT22;54904;54.350;18.664;2023-10-09T13:51:18;16.00;57.30
18321;DHT22;54904;54.350;18.664;2023-10-09T13:53:49;15.90;57.10
18321;DHT22;54904;54.350;18.664;2023-10-09T13:56:18;15.90;57.20
18321;DHT22;54904;54.350;18.664;2023-10-09T13:58:47;15.90;57.30
18321;DHT22;54904;54.350;18.664;2023-10-09T14:01:15;15.80;57.10
18321;DHT22;54904;54.350;18.664;2023-10-09T14:03:55;15.80;56.90
18321;DHT22;54904;54.350;18.664;2023-10-09T14:06:22;15.70;56.90
18321;DHT22;54904;54.350;18.664;2023-10-09T14:09:02;15.70;57.10
18321;DHT22;54904;54.350;18.664;2023-10-09T14:11:32;15.60;57.10
18321;DHT22;54904;54.350;18.664;2023-10-09T14:14:03;15.60;57.20
18321;DHT22;54904;54.350;18.664;2023-10-09T14:16:35;15.60;57.40
18321;DHT22;54904;54.350;18.664;2023-10-09T14:19:03;15.60;57.60
18321;DHT22;54904;54.350;18.664;2023-10-09T14:21:33;15.60;57.70
18321;DHT22;54904;54.350;18.664;2023-10-09T14:24:03;15.60;57.80
18321;DHT22;54904;54.350;18.664;2023-10-09T14:26:42;15.60;57.90
18321;DHT22;54904;54.350;18.664;2023-10-09T14:29:12;15.60;57.90
18321;DHT22;54904;54.350;18.664;2023-10-09T14:31:42;15.60;58.00
18321;DHT22;54904;54.350;18.664;2023-10-09T14:34:15;15.60;58.10
18321;DHT22;54904;54.350;18.664;2023-10-09T14:36:42;15.50;58.20
18321;DHT22;54904;54.350;18.664;2023-10-09T14:39:09;15.40;58.30
18321;DHT22;54904;54.350;18.664;2023-10-09T14:41:39;15.40;58.50
18321;DHT22;54904;54.350;18.664;2023-10-09T14:44:08;15.50;58.80
18321;DHT22;54904;54.350;18.664;2023-10-09T14:46:42;15.50;58.90
18321;DHT22;54904;54.350;18.664;2023-10-09T14:49:09;15.50;59.10
18321;DHT22;54904;54.350;18.664;2023-10-09T14:51:39;15.50;59.30
18321;DHT22;54904;54.350;18.664;2023-10-09T14:54:10;15.50;59.40
18321;DHT22;54904;54.350;18.664;2023-10-09T14:56:41;15.50;59.60
18321;DHT22;54904;54.350;18.664;2023-10-09T14:59:09;15.50;59.70
18321;DHT22;54904;54.350;18.664;2023-10-09T15:01:37;15.40;59.80
18321;DHT22;54904;54.350;18.664;2023-10-09T15:04:05;15.40;59.90
18321;DHT22;54904;54.350;18.664;2023-10-09T15:06:33;15.40;60.10
18321;DHT22;54904;54.350;18.664;2023-10-09T15:09:04;15.30;60.20
18321;DHT22;54904;54.350;18.664;2023-10-09T15:11:35;15.20;60.50
18321;DHT22;54904;54.350;18.664;2023-10-09T15:14:05;15.20;60.80
18321;DHT22;54904;54.350;18.664;2023-10-09T15:16:34;15.20;61.20
18321;DHT22;54904;54.350;18.664;2023-10-09T15:19:04;15.10;61.20
18321;DHT22;54904;54.350;18.664;2023-10-09T15:21:32;15.20;61.30
18321;DHT22;54904;54.350;18.664;2023-10-09T15:24:00;15.10;61.30
18321;DHT22;54904;54.350;18.664;2023-10-09T15:26:27;15.10;61.30
18321;DHT22;54904;54.350;18.664;2023-10-09T15:29:01;15.10;61.30
18321;DHT22;54904;54.350;18.664;2023-10-09T15:31:34;15.10;61.40
18321;DHT22;54904;54.350;18.664;2023-10-09T15:34:01;15.10;61.50
18321;DHT22;54904;54.350;18.664;2023-10-09T15:36:28;15.00;61.50
18321;DHT22;54904;54.350;18.664;2023-10-09T15:38:57;15.00;61.60
18321;DHT22;54904;54.350;18.664;2023-10-09T15:41:27;14.90;61.60
18321;DHT22;54904;54.350;18.664;2023-10-09T15:43:56;15.00;61.90
18321;DHT22;54904;54.350;18.664;2023-10-09T15:46:24;14.90;61.80
18321;DHT22;54904;54.350;18.664;2023-10-09T15:48:54;14.90;61.90
18321;DHT22;54904;54.350;18.664;2023-10-09T15:51:21;14.90;61.90
18321;DHT22;54904;54.350;18.664;2023-10-09T15:53:49;14.80;61.90
18321;DHT22;54904;54.350;18.664;2023-10-09T15:56:17;14.80;61.90
18321;DHT22;54904;54.350;18.664;2023-10-09T15:58:46;14.70;61.90
18321;DHT22;54904;54.350;18.664;2023-10-09T16:01:15;14.70;62.00
18321;DHT22;54904;54.350;18.664;2023-10-09T16:03:44;14.70;62.10